Decoded Metar for KCXO (CONROE in TX, USA) (IATA:CXO) | Meteo·Mobile Aviation Weather
aviador You're here:

KCXO Decoded Metar

CONROE in TX, USA
Report Time2018-12-13 03:53:00
UTC Time2018-12-13 04:49:58
Flight Rules vfr VFR
Wind150° at 06 kt
W.Decomp.*RWY 14: 6.0 kt HW 0.5 kt RCW
RWY 19: 4.2 kt HW 4.2 kt LCW
W.Rank150° ranks 2
Current wind is below 150° avg. (8.3)
Visibility9999 m
Phenomena:N/A
Clouds:Overcast 031 Hf
Expected CloudBase > 400 ft AGL from Temp-Dew spread
Ceiling3,100 ft
Temp17°C (ISA +2)
Dew Point16°C (94% RH)
AAT16.8°C
QNH1013 hPa
Density Alt781 ft
Elevation246 ft
Report Wrong Elevation
Raw Report
KCXO 130353Z AUTO 15006KT 10SM OVC031 17/16 A2992 RMK AO2 SLP130
T01720161=

Extra information for KCXO:More info

Metar Taf Metar & Taf Last 4 Metars F.Rules Stats Wind Profile Meteogram Temp Stats Airport Information Weather charts Add Link Nearby VenuesMetar ALERT Operation Metar Decoded Social comments

AIRNAV info for KCXO